Time;durP1;ratioP1;P1;durP2;ratioP2;P2;SDS_P1;SDS_P2;PMS_P1;PMS_P2;Temp;Humidity;BMP_temperature;BMP_pressure;BME280_temperature;BME280_humidity;BME280_pressure;Samples;Min_cycle;Max_cycle;Signal;HPM_P1;HPM_P2
2023/01/05 00:01:35;;;;;;;31.38;2.97;;;10.40;99.90;;;;;;6275967;22;20035;-80
2023/01/05 00:04:02;;;;;;;21.05;2.67;;;10.40;99.90;;;;;;6276047;22;20003;-80
2023/01/05 00:06:29;;;;;;;31.85;3.65;;;10.30;99.90;;;;;;6250425;22;20007;-79
2023/01/05 00:08:54;;;;;;;29.98;2.70;;;10.30;99.90;;;;;;6275065;22;20382;-79
2023/01/05 00:22:49;;;;;;;36.17;2.95;;;10.10;99.90;;;;;;6275490;22;20535;-79
2023/01/05 00:25:21;;;;;;;27.38;2.78;;;10.10;99.90;;;;;;6250296;22;20012;-78
2023/01/05 00:27:50;;;;;;;29.00;3.65;;;10.00;99.90;;;;;;6275976;22;20003;-81
2023/01/05 00:30:18;;;;;;;25.15;3.08;;;10.00;99.90;;;;;;6250416;22;20010;-80
2023/01/05 00:32:44;;;;;;;28.88;3.30;;;9.90;99.90;;;;;;6249878;22;20019;-79
2023/01/05 00:35:11;;;;;;;25.27;2.53;;;9.80;99.90;;;;;;6275649;22;20022;-80
2023/01/05 00:37:38;;;;;;;24.88;2.47;;;9.80;99.90;;;;;;6275163;22;20497;-79
2023/01/05 00:40:06;;;;;;;27.45;3.10;;;9.80;99.90;;;;;;6250072;22;20007;-80
2023/01/05 00:42:31;;;;;;;32.70;3.88;;;9.70;99.90;;;;;;6250430;22;20019;-80
2023/01/05 00:44:57;;;;;;;22.70;2.60;;;9.70;99.90;;;;;;6302488;22;20052;-80
2023/01/05 00:47:23;;;;;;;28.15;3.20;;;9.70;99.90;;;;;;6276092;22;20452;-80
2023/01/05 00:49:48;;;;;;;31.35;3.75;;;9.60;99.90;;;;;;6275084;22;20407;-80
2023/01/05 00:52:14;;;;;;;29.80;3.50;;;9.70;99.90;;;;;;6275105;22;20321;-81
2023/01/05 00:54:39;;;;;;;28.83;3.40;;;9.70;99.90;;;;;;6275189;22;20011;-79
2023/01/05 00:57:08;;;;;;;36.33;4.47;;;9.70;99.90;;;;;;6274985;22;20007;-79
2023/01/05 00:59:35;;;;;;;29.90;3.40;;;9.70;99.90;;;;;;6275508;22;20007;-79
2023/01/05 01:02:00;;;;;;;35.08;3.40;;;9.70;99.90;;;;;;6300994;22;20102;-80
2023/01/05 01:04:26;;;;;;;26.73;2.78;;;9.50;99.90;;;;;;6274820;22;20014;-78
2023/01/05 01:06:53;;;;;;;35.75;2.92;;;9.50;99.90;;;;;;6274785;22;20034;-80
2023/01/05 01:09:19;;;;;;;31.60;2.97;;;9.50;99.90;;;;;;6275878;22;20496;-81
2023/01/05 01:11:45;;;;;;;32.70;3.55;;;9.50;99.90;;;;;;6275474;22;20007;-80
2023/01/05 01:14:12;;;;;;;32.35;3.15;;;9.50;99.90;;;;;;6275276;22;20010;-79
2023/01/05 01:16:42;;;;;;;31.08;3.78;;;9.60;99.90;;;;;;6275505;22;20023;-79
2023/01/05 01:19:13;;;;;;;29.00;3.30;;;9.50;99.90;;;;;;6249517;22;20015;-79
2023/01/05 01:21:39;;;;;;;31.40;3.97;;;9.60;99.90;;;;;;6275125;22;20053;-80
2023/01/05 01:24:06;;;;;;;25.58;2.80;;;9.60;99.90;;;;;;6275379;22;20439;-79
2023/01/05 01:26:31;;;;;;;33.08;4.00;;;9.70;99.90;;;;;;6300509;22;20007;-80
2023/01/05 01:28:57;;;;;;;33.05;2.88;;;9.70;99.90;;;;;;6275748;22;20004;-80
2023/01/05 01:31:23;;;;;;;34.72;3.70;;;9.70;99.90;;;;;;6275361;22;20078;-81
2023/01/05 01:33:48;;;;;;;35.97;3.80;;;9.70;99.90;;;;;;6274887;22;20100;-79
2023/01/05 01:36:14;;;;;;;26.75;3.35;;;9.70;99.90;;;;;;6274283;22;20447;-80
2023/01/05 01:38:40;;;;;;;26.70;3.63;;;9.60;99.90;;;;;;6275087;22;20007;-83
2023/01/05 01:41:06;;;;;;;30.27;3.30;;;9.60;99.90;;;;;;6274585;22;20427;-80
2023/01/05 01:43:48;;;;;;;23.15;3.17;;;9.60;99.90;;;;;;6275695;22;20012;-80
2023/01/05 01:46:18;;;;;;;28.63;3.67;;;9.60;99.90;;;;;;6274686;22;20090;-80
2023/01/05 01:48:51;;;;;;;38.20;3.70;;;9.60;99.90;;;;;;6274988;22;20086;-79
2023/01/05 01:51:29;;;;;;;28.45;3.60;;;9.70;99.90;;;;;;6248893;22;20011;-79
2023/01/05 01:53:57;;;;;;;30.23;4.40;;;9.70;99.90;;;;;;6248366;22;20257;-81
2023/01/05 01:56:26;;;;;;;32.72;3.60;;;9.70;99.90;;;;;;6274798;22;20011;-80
2023/01/05 01:58:52;;;;;;;27.88;3.47;;;9.70;99.90;;;;;;6275115;22;20017;-79
2023/01/05 02:01:19;;;;;;;33.55;3.28;;;9.70;99.90;;;;;;6249548;22;20335;-80
2023/01/05 02:03:45;;;;;;;31.90;3.63;;;9.80;99.90;;;;;;6300761;22;20031;-81
2023/01/05 02:06:11;;;;;;;26.98;3.22;;;9.70;99.90;;;;;;6248249;22;20007;-80
2023/01/05 02:08:37;;;;;;;31.35;2.22;;;9.70;99.90;;;;;;6275250;22;20420;-79
2023/01/05 02:11:40;;;;;;;26.55;3.55;;;9.70;99.90;;;;;;6302013;22;20045;-79
2023/01/05 02:14:13;;;;;;;;;;;9.80;99.90;;;;;;6251874;22;20015;-80
2023/01/05 02:16:49;;;;;;;31.65;3.40;;;9.80;99.90;;;;;;6249506;22;19910;-79
2023/01/05 02:19:47;;;;;;;34.92;3.97;;;9.80;99.90;;;;;;6248179;22;20003;-79
2023/01/05 02:22:41;;;;;;;35.85;3.63;;;9.80;99.90;;;;;;6127971;23;20009;-79
2023/01/05 02:25:40;;;;;;;26.85;2.72;;;9.80;99.90;;;;;;6151709;23;20013;-79
2023/01/05 02:28:36;;;;;;;31.90;3.90;;;9.90;99.90;;;;;;6127484;23;20408;-80
2023/01/05 02:31:17;;;;;;;27.35;2.70;;;9.90;99.90;;;;;;6152002;23;20025;-79
2023/01/05 02:34:00;;;;;;;25.50;2.60;;;9.90;99.90;;;;;;6176645;23;20021;-79
2023/01/05 02:36:41;;;;;;;33.20;3.60;;;10.00;99.90;;;;;;6177112;23;20012;-78
2023/01/05 02:39:17;;;;;;;38.50;3.90;;;9.90;99.90;;;;;;6153932;23;20009;-80
2023/01/05 02:42:00;;;;;;;29.58;3.10;;;9.90;99.90;;;;;;6130325;23;20009;-80
2023/01/05 02:44:31;;;;;;;31.00;3.58;;;9.90;99.90;;;;;;6179063;23;20044;-79
2023/01/05 02:47:26;;;;;;;32.58;3.60;;;9.80;99.90;;;;;;6154238;23;20009;-79
2023/01/05 02:50:01;;;;;;;28.98;3.63;;;9.90;99.90;;;;;;6129492;23;20091;-80
2023/01/05 02:52:53;;;;;;;33.53;3.40;;;9.90;99.90;;;;;;6129921;23;20005;-79
2023/01/05 02:55:31;;;;;;;29.30;3.47;;;9.90;99.90;;;;;;6173602;23;20021;-79
2023/01/05 02:58:22;;;;;;;26.60;2.97;;;9.90;99.90;;;;;;6196987;22;20007;-79
2023/01/05 03:01:02;;;;;;;31.33;3.95;;;9.90;99.90;;;;;;6304052;22;20087;-81
2023/01/05 03:03:44;;;;;;;36.25;3.85;;;10.00;99.90;;;;;;6276543;22;20015;-80
2023/01/05 03:06:19;;;;;;;27.05;2.90;;;9.90;99.90;;;;;;6302291;22;20018;-80
2023/01/05 03:08:55;;;;;;;33.28;3.33;;;10.00;99.90;;;;;;6276678;22;20047;-80
2023/01/05 03:14:51;;;;;;;29.77;3.50;;;10.00;99.90;;;;;;6275961;22;20011;-80
2023/01/05 03:17:25;;;;;;;28.73;3.00;;;10.00;99.90;;;;;;6203506;22;20011;-84
2023/01/05 03:19:52;;;;;;;30.55;3.08;;;10.10;99.90;;;;;;6276269;22;20017;-84
2023/01/05 03:37:03;;;;;;;36.83;4.40;;;10.00;99.90;;;;;;6276303;22;20014;-79
2023/01/05 03:39:31;;;;;;;33.67;3.20;;;10.00;99.90;;;;;;6251389;22;20321;-81
2023/01/05 03:42:01;;;;;;;26.98;2.92;;;10.00;99.90;;;;;;6276212;22;20033;-79
2023/01/05 03:44:27;;;;;;;34.03;3.15;;;10.00;99.90;;;;;;6276304;22;20497;-79
2023/01/05 03:46:53;;;;;;;23.92;3.22;;;10.00;99.90;;;;;;6275455;22;20003;-80
2023/01/05 03:49:19;;;;;;;37.08;4.18;;;9.90;99.90;;;;;;6276359;22;20090;-81
2023/01/05 03:51:45;;;;;;;26.08;3.40;;;9.90;99.90;;;;;;6302610;22;20031;-79
2023/01/05 03:54:11;;;;;;;31.20;1.98;;;9.90;99.90;;;;;;6275874;22;19922;-79
2023/01/05 03:56:39;;;;;;;28.08;3.78;;;9.90;99.90;;;;;;6276477;22;20050;-80
2023/01/05 03:59:05;;;;;;;22.92;3.25;;;9.90;99.90;;;;;;6275675;22;20379;-80
2023/01/05 04:01:31;;;;;;;31.20;3.25;;;9.90;99.90;;;;;;6276177;22;20089;-81
2023/01/05 04:03:58;;;;;;;27.40;2.72;;;9.90;99.90;;;;;;6250422;22;20078;-79
2023/01/05 04:06:23;;;;;;;40.58;4.40;;;9.90;99.90;;;;;;6275931;22;20443;-81
2023/01/05 04:08:49;;;;;;;34.50;3.33;;;10.00;99.90;;;;;;6275442;22;20332;-79
2023/01/05 04:11:17;;;;;;;28.08;4.20;;;9.90;99.90;;;;;;6275948;22;20018;-79
2023/01/05 04:14:02;;;;;;;31.92;2.88;;;9.90;99.90;;;;;;6275491;22;20019;-80
2023/01/05 04:16:28;;;;;;;24.60;3.05;;;9.90;99.90;;;;;;6275357;22;20456;-79
2023/01/05 04:18:56;;;;;;;31.33;3.67;;;9.90;99.90;;;;;;6275349;22;20017;-79
2023/01/05 04:21:22;;;;;;;31.13;2.75;;;9.90;99.90;;;;;;6303446;22;20031;-80
2023/01/05 04:23:51;;;;;;;39.28;3.58;;;9.90;99.90;;;;;;6275618;22;20241;-79
2023/01/05 04:26:17;;;;;;;31.85;3.40;;;9.90;99.90;;;;;;6275942;22;20003;-79
2023/01/05 04:28:51;;;;;;;22.30;2.58;;;9.90;99.90;;;;;;6300786;22;20064;-79
2023/01/05 04:31:20;;;;;;;31.02;4.10;;;9.90;99.90;;;;;;6250928;22;20003;-80
2023/01/05 04:33:47;;;;;;;25.73;2.50;;;9.90;99.90;;;;;;6250471;22;20018;-80
2023/01/05 04:36:16;;;;;;;24.90;3.08;;;9.90;99.90;;;;;;6275474;22;20428;-80
2023/01/05 04:38:42;;;;;;;23.23;2.10;;;9.90;99.90;;;;;;6275794;22;20057;-79
2023/01/05 04:41:08;;;;;;;27.80;2.78;;;9.90;99.90;;;;;;6275810;22;20037;-79
2023/01/05 04:43:34;;;;;;;27.58;2.50;;;9.90;99.90;;;;;;6275625;22;20450;-80
2023/01/05 04:46:01;;;;;;;30.90;3.03;;;9.90;99.90;;;;;;6250181;22;20003;-79
2023/01/05 04:48:30;;;;;;;24.50;2.75;;;9.90;99.90;;;;;;6275557;22;20011;-80
2023/01/05 04:50:58;;;;;;;26.80;3.63;;;9.90;99.90;;;;;;6275402;22;20007;-80
2023/01/05 04:53:29;;;;;;;21.60;1.83;;;9.80;99.90;;;;;;6275301;22;20015;-81
2023/01/05 04:55:55;;;;;;;28.98;2.75;;;9.90;99.90;;;;;;6275105;22;20030;-80
2023/01/05 04:58:21;;;;;;;24.13;1.70;;;9.90;99.90;;;;;;6275456;22;20014;-81
2023/01/05 05:00:48;;;;;;;21.40;2.58;;;9.90;99.90;;;;;;6300500;22;20079;-80
2023/01/05 05:03:14;;;;;;;27.55;3.15;;;9.90;99.90;;;;;;6249892;22;20065;-79
2023/01/05 05:05:40;;;;;;;30.85;2.72;;;9.90;99.90;;;;;;6273105;22;20003;-79
2023/01/05 05:08:07;;;;;;;28.50;2.78;;;9.90;99.90;;;;;;6249471;22;20018;-80
2023/01/05 05:10:34;;;;;;;28.90;2.80;;;9.90;99.90;;;;;;6275548;22;20090;-80
2023/01/05 05:13:02;;;;;;;24.20;2.53;;;9.90;99.90;;;;;;6300193;22;20452;-79
2023/01/05 05:15:29;;;;;;;23.75;2.13;;;9.90;99.90;;;;;;6249890;22;20003;-80
2023/01/05 05:17:55;;;;;;;29.48;3.72;;;9.90;99.90;;;;;;6275138;22;20011;-78
2023/01/05 05:20:21;;;;;;;17.95;1.95;;;9.80;99.90;;;;;;6274384;22;20033;-79
2023/01/05 05:22:48;;;;;;;33.75;3.17;;;9.90;99.90;;;;;;6274807;22;20428;-79
2023/01/05 05:25:16;;;;;;;27.17;2.72;;;9.90;99.90;;;;;;6300227;22;20007;-79
2023/01/05 05:27:45;;;;;;;31.38;3.10;;;9.80;99.90;;;;;;6274983;22;20034;-80
2023/01/05 05:30:11;;;;;;;23.50;2.80;;;9.80;99.90;;;;;;6274668;22;20060;-79
2023/01/05 05:32:37;;;;;;;22.35;1.77;;;9.80;99.90;;;;;;6302191;22;20391;-78
2023/01/05 05:35:03;;;;;;;28.85;2.55;;;9.80;99.90;;;;;;6273627;22;20031;-79
2023/01/05 05:37:28;;;;;;;25.52;2.88;;;9.80;99.90;;;;;;6274955;22;20007;-78
2023/01/05 05:39:54;;;;;;;23.38;2.92;;;9.80;99.90;;;;;;6300638;22;20053;-78
2023/01/05 05:42:20;;;;;;;24.15;1.77;;;9.70;99.90;;;;;;6274677;22;20014;-80
2023/01/05 05:44:45;;;;;;;25.38;2.92;;;9.80;99.90;;;;;;6275073;22;20064;-79
2023/01/05 05:47:11;;;;;;;25.08;1.80;;;9.80;99.90;;;;;;6274503;22;20007;-79
2023/01/05 05:49:37;;;;;;;28.60;2.58;;;9.80;99.90;;;;;;6302303;22;20007;-79
2023/01/05 05:52:03;;;;;;;22.77;2.35;;;9.80;99.90;;;;;;6274337;22;20034;-78
2023/01/05 05:54:28;;;;;;;21.80;2.25;;;9.80;99.90;;;;;;6300513;22;20015;-78
2023/01/05 05:56:55;;;;;;;32.20;3.83;;;9.90;99.90;;;;;;6274615;22;20479;-78
2023/01/05 05:59:20;;;;;;;22.98;2.03;;;9.90;99.90;;;;;;6302289;22;20015;-79
2023/01/05 06:01:46;;;;;;;27.63;2.65;;;9.90;99.90;;;;;;6275081;22;20337;-78
2023/01/05 06:04:12;;;;;;;26.02;3.28;;;9.90;99.90;;;;;;6274782;22;20022;-78
2023/01/05 06:06:38;;;;;;;30.10;2.63;;;9.90;99.90;;;;;;6248921;22;20007;-78
2023/01/05 06:09:04;;;;;;;24.33;2.33;;;9.90;99.90;;;;;;6274962;22;20011;-78
2023/01/05 06:11:30;;;;;;;28.73;2.72;;;9.90;99.90;;;;;;6302133;22;20003;-78
2023/01/05 06:13:56;;;;;;;22.48;2.00;;;9.90;99.90;;;;;;6274616;22;20447;-79
2023/01/05 06:16:21;;;;;;;21.30;2.13;;;9.90;99.90;;;;;;6302094;22;20008;-78
2023/01/05 06:18:47;;;;;;;20.42;2.38;;;9.90;99.90;;;;;;6274265;22;20029;-78
2023/01/05 06:21:13;;;;;;;26.90;2.85;;;9.90;99.90;;;;;;6274836;22;20011;-79
2023/01/05 06:23:38;;;;;;;26.17;2.78;;;10.00;99.90;;;;;;6249504;22;20421;-79
2023/01/05 06:26:05;;;;;;;27.67;2.33;;;10.00;99.90;;;;;;6301596;22;20537;-79
2023/01/05 06:28:31;;;;;;;21.95;3.08;;;9.90;99.90;;;;;;6275025;22;20157;-79
2023/01/05 06:30:56;;;;;;;24.48;2.75;;;10.00;99.90;;;;;;6212812;22;20031;-78
2023/01/05 06:33:22;;;;;;;30.15;3.45;;;10.00;99.90;;;;;;6288190;22;20015;-78
2023/01/05 06:35:47;;;;;;;26.70;2.95;;;10.00;99.90;;;;;;6260575;22;20007;-78
2023/01/05 06:38:14;;;;;;;24.83;2.35;;;9.90;99.90;;;;;;6260862;22;20011;-77
2023/01/05 06:40:43;;;;;;;25.70;3.28;;;9.90;99.90;;;;;;6291485;22;20019;-78
2023/01/05 06:43:10;;;;;;;28.75;3.78;;;9.90;99.90;;;;;;6302144;22;20317;-78
2023/01/05 06:45:36;;;;;;;22.58;2.58;;;9.90;99.90;;;;;;6301156;22;20511;-78
2023/01/05 06:48:02;;;;;;;30.85;3.53;;;9.90;99.90;;;;;;6300602;22;20068;-77
2023/01/05 06:50:29;;;;;;;20.98;1.67;;;9.90;99.90;;;;;;6301955;22;20452;-79
2023/01/05 06:52:54;;;;;;;32.20;2.28;;;9.90;99.90;;;;;;6274527;22;20018;-78
2023/01/05 06:55:20;;;;;;;28.63;2.33;;;9.90;99.90;;;;;;6273836;22;20015;-77
2023/01/05 06:57:47;;;;;;;30.13;3.17;;;10.00;99.90;;;;;;6302335;22;20023;-79
2023/01/05 07:00:13;;;;;;;29.95;2.63;;;10.00;99.90;;;;;;6302318;22;20467;-79
2023/01/05 07:02:39;;;;;;;25.70;2.60;;;10.00;99.90;;;;;;6275362;22;20007;-79
2023/01/05 07:05:05;;;;;;;23.05;1.95;;;9.90;99.90;;;;;;6301631;22;20006;-79
2023/01/05 07:07:31;;;;;;;21.45;1.83;;;10.00;99.90;;;;;;6275387;22;20485;-79
2023/01/05 07:09:57;;;;;;;26.73;2.80;;;9.90;99.90;;;;;;6274329;22;20011;-79
2023/01/05 07:12:23;;;;;;;30.30;2.85;;;9.90;99.90;;;;;;6274431;22;20444;-78
2023/01/05 07:14:49;;;;;;;29.80;2.70;;;9.90;99.90;;;;;;6273915;22;20019;-79
2023/01/05 07:17:14;;;;;;;36.13;3.78;;;9.90;99.90;;;;;;6302469;22;20014;-79
2023/01/05 07:19:40;;;;;;;24.23;2.08;;;9.90;99.90;;;;;;6302173;22;20007;-78
2023/01/05 07:22:06;;;;;;;31.98;2.45;;;9.90;99.90;;;;;;6301800;22;20018;-79
2023/01/05 07:24:32;;;;;;;33.75;2.75;;;9.90;99.90;;;;;;6250098;22;20452;-79
2023/01/05 07:26:58;;;;;;;25.02;3.13;;;9.90;99.90;;;;;;6250339;22;20085;-79
2023/01/05 07:29:24;;;;;;;30.58;2.47;;;9.80;99.90;;;;;;6276732;22;20014;-78
2023/01/05 07:31:52;;;;;;;23.60;2.15;;;9.90;99.90;;;;;;6276137;22;20313;-79
2023/01/05 07:34:19;;;;;;;31.05;3.42;;;9.80;99.90;;;;;;6303645;22;20023;-79
2023/01/05 07:36:44;;;;;;;26.05;2.70;;;9.90;99.90;;;;;;6250801;22;20007;-78
2023/01/05 07:39:10;;;;;;;26.63;2.80;;;9.90;99.90;;;;;;6302990;22;20384;-79
2023/01/05 07:41:36;;;;;;;25.98;2.33;;;10.00;99.90;;;;;;6276417;22;19999;-79
2023/01/05 07:44:02;;;;;;;27.05;2.22;;;9.90;99.90;;;;;;6275965;22;20439;-79
2023/01/05 07:46:27;;;;;;;36.00;3.15;;;9.90;99.90;;;;;;6276139;22;20030;-78
2023/01/05 07:48:53;;;;;;;26.20;2.88;;;9.90;99.90;;;;;;6302079;22;20330;-79
2023/01/05 07:51:18;;;;;;;40.40;3.13;;;9.90;99.90;;;;;;6276197;22;20003;-78
2023/01/05 07:53:44;;;;;;;27.08;2.33;;;9.90;99.90;;;;;;6302712;22;20015;-78
2023/01/05 07:56:11;;;;;;;34.97;2.90;;;9.90;99.90;;;;;;6302881;22;20082;-78
2023/01/05 07:58:36;;;;;;;25.10;3.05;;;9.90;99.90;;;;;;6276230;22;20086;-78
2023/01/05 08:01:08;;;;;;;29.35;2.45;;;10.00;99.90;;;;;;6275634;22;20039;-79
2023/01/05 08:03:33;;;;;;;30.30;2.38;;;10.00;99.90;;;;;;6250119;22;20339;-79
2023/01/05 08:06:10;;;;;;;27.50;3.80;;;10.00;99.90;;;;;;6303099;22;19999;-80
2023/01/05 08:08:37;;;;;;;31.60;2.83;;;10.00;99.90;;;;;;6275318;22;20014;-78
2023/01/05 08:11:04;;;;;;;29.90;3.90;;;10.00;99.90;;;;;;6275512;22;20007;-79
2023/01/05 08:16:13;;;;;;;27.88;2.25;;;10.00;99.90;;;;;;6275276;22;20007;-78
2023/01/05 08:18:39;;;;;;;27.17;2.67;;;10.00;99.90;;;;;;6275496;22;20007;-78
2023/01/05 08:21:07;;;;;;;38.42;4.10;;;10.00;99.90;;;;;;6273904;22;20072;-79
2023/01/05 08:23:33;;;;;;;24.58;2.10;;;10.00;99.90;;;;;;6275401;22;20083;-79
2023/01/05 08:26:04;;;;;;;29.13;3.00;;;10.00;99.90;;;;;;6249730;22;20488;-78
2023/01/05 08:28:30;;;;;;;29.05;2.92;;;10.10;99.90;;;;;;6303030;22;20369;-79
2023/01/05 08:31:23;;;;;;;25.10;3.25;;;10.00;99.90;;;;;;6300905;22;20049;-80
2023/01/05 08:33:49;;;;;;;24.40;2.83;;;10.00;99.90;;;;;;6244781;22;20518;-78
2023/01/05 08:36:21;;;;;;;31.55;2.50;;;10.00;99.90;;;;;;6273984;22;20049;-78
2023/01/05 08:38:49;;;;;;;28.38;2.55;;;10.00;99.90;;;;;;6275059;22;20015;-78
2023/01/05 08:41:17;;;;;;;22.40;2.42;;;10.10;99.90;;;;;;6249466;22;20082;-79
2023/01/05 08:43:43;;;;;;;18.13;2.50;;;10.10;99.90;;;;;;6249273;22;20015;-79
2023/01/05 08:46:08;;;;;;;26.38;2.35;;;10.10;99.90;;;;;;6274420;22;20015;-78
2023/01/05 08:48:34;;;;;;;24.90;3.03;;;10.10;99.90;;;;;;6300794;22;20042;-79
2023/01/05 08:51:02;;;;;;;23.92;2.35;;;10.10;99.90;;;;;;6301164;22;20003;-79
2023/01/05 08:53:28;;;;;;;25.30;2.15;;;10.20;99.90;;;;;;6249499;22;20026;-79
2023/01/05 08:55:54;;;;;;;20.48;1.92;;;10.10;99.90;;;;;;6274974;22;20003;-79
2023/01/05 08:58:20;;;;;;;35.50;3.33;;;10.20;99.90;;;;;;6275427;22;20026;-79
2023/01/05 09:00:45;;;;;;;32.28;4.10;;;10.20;99.90;;;;;;6274596;22;20031;-79
2023/01/05 09:03:11;;;;;;;30.90;2.25;;;10.20;99.90;;;;;;6248634;22;20007;-79
2023/01/05 09:05:36;;;;;;;30.00;2.53;;;10.20;99.90;;;;;;6273948;22;20003;-78
2023/01/05 09:08:03;;;;;;;25.95;2.83;;;10.20;99.90;;;;;;6274118;22;20042;-79
2023/01/05 09:10:29;;;;;;;40.55;3.58;;;10.20;99.90;;;;;;6249792;22;20013;-79
2023/01/05 09:12:55;;;;;;;25.83;3.17;;;10.20;99.90;;;;;;6274549;22;20070;-80
2023/01/05 09:15:20;;;;;;;28.40;3.00;;;10.20;99.90;;;;;;6273750;22;20003;-80
2023/01/05 09:17:46;;;;;;;31.13;3.10;;;10.20;99.90;;;;;;6274191;22;19999;-79
2023/01/05 09:20:12;;;;;;;30.67;3.92;;;10.20;99.90;;;;;;6274185;22;20009;-80
2023/01/05 09:22:37;;;;;;;32.60;2.78;;;10.20;99.90;;;;;;6301958;22;20037;-80
2023/01/05 09:25:04;;;;;;;26.85;2.42;;;10.10;99.90;;;;;;6274327;22;20010;-81
2023/01/05 09:27:29;;;;;;;21.42;2.00;;;10.10;99.90;;;;;;6274764;22;20345;-80
2023/01/05 09:29:55;;;;;;;27.48;2.85;;;10.10;99.90;;;;;;6274309;22;20004;-79
2023/01/05 09:32:23;;;;;;;25.90;2.80;;;10.20;99.90;;;;;;6274349;22;20019;-80
2023/01/05 09:34:48;;;;;;;21.20;2.28;;;10.20;99.90;;;;;;6273788;22;20007;-80
2023/01/05 09:37:14;;;;;;;27.80;3.13;;;10.10;99.90;;;;;;6301833;22;20001;-80
2023/01/05 09:39:40;;;;;;;25.30;2.45;;;10.20;99.90;;;;;;6301796;22;20030;-80
2023/01/05 09:42:10;;;;;;;26.77;3.05;;;10.20;99.90;;;;;;6274426;22;20031;-80
2023/01/05 09:44:42;;;;;;;30.17;2.95;;;10.20;99.90;;;;;;6273633;22;20011;-80
2023/01/05 09:47:23;;;;;;;27.63;2.25;;;10.20;99.90;;;;;;6301760;22;20069;-79
2023/01/05 09:49:49;;;;;;;29.48;2.17;;;10.20;99.90;;;;;;6273932;22;20030;-80
2023/01/05 09:52:20;;;;;;;20.38;2.15;;;10.20;99.90;;;;;;6301662;22;20006;-80
2023/01/05 09:54:45;;;;;;;30.80;3.25;;;10.20;99.90;;;;;;6274153;22;20015;-79
2023/01/05 09:57:21;;;;;;;36.17;3.70;;;10.20;99.90;;;;;;6301843;22;20006;-79
2023/01/05 09:59:52;;;;;;;24.02;2.65;;;10.20;99.90;;;;;;6275027;22;20046;-79
2023/01/05 10:02:28;;;;;;;24.50;2.20;;;10.20;99.90;;;;;;6302422;22;20003;-79
2023/01/05 10:04:55;;;;;;;31.80;2.80;;;10.20;99.90;;;;;;6301449;22;20371;-80
2023/01/05 10:07:34;;;;;;;26.83;3.03;;;10.20;99.90;;;;;;6248727;22;20053;-80
2023/01/05 10:10:04;;;;;;;19.98;2.03;;;10.20;99.90;;;;;;6300142;22;20003;-80
2023/01/05 10:15:29;;;;;;;23.55;3.40;;;10.20;99.90;;;;;;6273733;22;20340;-79
2023/01/05 10:17:54;;;;;;;33.95;3.28;;;10.20;99.90;;;;;;6273249;22;20052;-79
2023/01/05 10:20:39;;;;;;;28.95;2.25;;;10.20;99.90;;;;;;6302018;22;20078;-79
2023/01/05 10:23:04;;;;;;;21.90;2.80;;;10.20;99.90;;;;;;6273862;22;20008;-79
2023/01/05 10:25:35;;;;;;;29.90;2.92;;;10.20;99.90;;;;;;6301761;22;20310;-77
2023/01/05 10:28:07;;;;;;;30.80;3.22;;;10.20;99.90;;;;;;6273964;22;20328;-79
2023/01/05 10:30:47;;;;;;;30.20;4.07;;;10.30;99.90;;;;;;6248648;22;20011;-79
2023/01/05 10:33:14;;;;;;;;;;;10.30;99.90;;;;;;6248295;22;20065;-79
2023/01/05 10:36:05;;;;;;;28.10;2.75;;;10.30;99.90;;;;;;6274221;22;19945;-79
2023/01/05 10:38:30;;;;;;;32.45;3.20;;;10.30;99.90;;;;;;6248269;22;20432;-78
2023/01/05 10:41:28;;;;;;;36.72;4.22;;;10.30;99.90;;;;;;6248382;22;20061;-79
2023/01/05 10:44:12;;;;;;;29.80;2.78;;;10.30;99.90;;;;;;6299862;22;20078;-79
2023/01/05 10:46:42;;;;;;;31.45;3.00;;;10.30;99.90;;;;;;6274132;22;20003;-79
2023/01/05 10:49:15;;;;;;;23.38;3.00;;;10.40;99.90;;;;;;6301665;22;20449;-79
2023/01/05 10:51:41;;;;;;;26.55;3.70;;;10.40;99.90;;;;;;6274046;22;20014;-79
2023/01/05 10:54:21;;;;;;;21.98;3.40;;;10.40;99.90;;;;;;6273123;22;20067;-79
2023/01/05 10:56:46;;;;;;;24.17;2.55;;;10.40;99.90;;;;;;6248667;22;20090;-79
2023/01/05 10:59:15;;;;;;;24.40;2.75;;;10.30;99.90;;;;;;6275204;22;20046;-79
2023/01/05 11:01:47;;;;;;;28.20;2.03;;;10.30;99.90;;;;;;6250669;22;20125;-79
2023/01/05 11:04:23;;;;;;;21.77;2.50;;;10.30;99.90;;;;;;6276112;22;20009;-79
2023/01/05 11:06:49;;;;;;;27.20;2.65;;;10.30;99.90;;;;;;6302098;22;20034;-79
2023/01/05 11:09:21;;;;;;;20.33;2.88;;;10.30;99.90;;;;;;6301495;22;20003;-79
2023/01/05 11:12:03;;;;;;;27.55;3.38;;;10.30;99.90;;;;;;6303611;22;20011;-79
2023/01/05 11:14:35;;;;;;;34.30;3.47;;;10.40;99.90;;;;;;6301591;22;20015;-79
2023/01/05 11:17:06;;;;;;;22.20;2.42;;;10.40;99.90;;;;;;6274988;22;20443;-79
2023/01/05 11:19:35;;;;;;;29.65;2.97;;;10.50;99.90;;;;;;6250431;22;20041;-79
2023/01/05 11:22:01;;;;;;;27.77;2.17;;;10.50;99.90;;;;;;6250183;22;20444;-80
2023/01/05 11:24:35;;;;;;;31.92;2.20;;;10.50;99.90;;;;;;6302587;22;20026;-78
2023/01/05 11:27:21;;;;;;;23.90;3.03;;;10.50;99.90;;;;;;6250383;22;20017;-78
2023/01/05 11:30:15;;;;;;;23.73;2.88;;;10.50;99.90;;;;;;6249980;22;20428;-78
2023/01/05 11:32:42;;;;;;;27.17;2.60;;;10.60;99.90;;;;;;6275583;22;20007;-80
2023/01/05 11:35:32;;;;;;;29.30;2.47;;;10.60;99.90;;;;;;6275233;22;20010;-79
2023/01/05 11:37:59;;;;;;;28.98;4.10;;;10.60;99.90;;;;;;6303132;22;20439;-80
2023/01/05 11:40:29;;;;;;;28.08;3.40;;;10.60;99.90;;;;;;6250232;22;20011;-80
2023/01/05 11:42:55;;;;;;;30.08;3.17;;;10.60;99.90;;;;;;6250118;22;20518;-80
2023/01/05 11:45:23;;;;;;;26.88;2.90;;;10.60;99.90;;;;;;6249498;22;20039;-79
2023/01/05 11:47:59;;;;;;;30.67;3.75;;;10.60;99.90;;;;;;6275331;22;20010;-81
2023/01/05 11:50:26;;;;;;;25.45;2.55;;;10.60;99.90;;;;;;6275427;22;20133;-81
2023/01/05 11:52:54;;;;;;;30.52;4.43;;;10.60;99.90;;;;;;6249779;22;20169;-80
2023/01/05 11:55:23;;;;;;;33.97;3.88;;;10.70;99.90;;;;;;6275464;22;20015;-80
2023/01/05 11:57:51;;;;;;;21.00;2.42;;;10.80;99.90;;;;;;6275775;22;19999;-82
2023/01/05 12:00:45;;;;;;;25.55;2.90;;;10.90;99.90;;;;;;6273414;22;20039;-80
2023/01/05 12:03:14;;;;;;;28.55;3.45;;;10.90;99.90;;;;;;6273849;22;20014;-81
2023/01/05 12:05:49;;;;;;;30.40;2.75;;;10.80;99.90;;;;;;6275778;22;20060;-81
2023/01/05 12:08:22;;;;;;;23.38;3.20;;;10.90;99.90;;;;;;6275496;22;20035;-81
2023/01/05 12:11:04;;;;;;;28.13;2.65;;;11.00;99.90;;;;;;6249641;22;20011;-80
2023/01/05 12:13:48;;;;;;;20.13;2.28;;;11.00;99.90;;;;;;6275196;22;20026;-81
2023/01/05 12:16:43;;;;;;;20.48;2.78;;;11.10;99.90;;;;;;6249553;22;20510;-81
2023/01/05 12:19:34;;;;;;;34.95;3.67;;;11.10;99.90;;;;;;6292900;22;20011;-82
2023/01/05 12:22:12;;;;;;;30.15;3.63;;;11.20;99.90;;;;;;6274874;22;20000;-81
2023/01/05 12:25:15;;;;;;;28.48;2.92;;;11.20;99.90;;;;;;6274941;22;20017;-81
2023/01/05 12:28:24;;;;;;;36.90;3.83;;;11.10;99.90;;;;;;6274684;22;20007;-80
2023/01/05 12:31:12;;;;;;;25.13;3.80;;;11.20;99.90;;;;;;6274238;22;20015;-81
2023/01/05 12:33:56;;;;;;;27.92;3.55;;;11.30;99.90;;;;;;6275535;22;20015;-81
2023/01/05 12:36:50;;;;;;;29.95;3.28;;;11.40;99.90;;;;;;6249821;22;20048;-81
2023/01/05 12:39:37;;;;;;;24.98;3.42;;;11.60;99.90;;;;;;6177578;23;20385;-81
2023/01/05 12:42:32;;;;;;;30.70;3.70;;;11.60;99.90;;;;;;6151869;23;20013;-80
2023/01/05 12:45:16;;;;;;;28.15;3.47;;;11.60;99.90;;;;;;6148163;23;20095;-79
2023/01/05 12:48:03;;;;;;;25.73;2.92;;;11.40;99.90;;;;;;6177993;23;20009;-80
2023/01/05 12:50:38;;;;;;;18.83;2.28;;;11.30;99.90;;;;;;6128200;23;20009;-81
2023/01/05 12:53:34;;;;;;;24.17;3.92;;;11.20;99.90;;;;;;6128035;23;20027;-81
2023/01/05 12:56:22;;;;;;;23.60;3.25;;;11.40;99.90;;;;;;6152272;23;20488;-81
2023/01/05 12:59:09;;;;;;;18.35;2.92;;;11.50;99.90;;;;;;6151426;23;20017;-79
2023/01/05 13:01:42;;;;;;;32.58;3.33;;;11.60;99.90;;;;;;6128022;23;20159;-79
2023/01/05 13:04:28;;;;;;;19.20;2.97;;;11.70;99.90;;;;;;6176327;23;20016;-80
2023/01/05 13:06:57;;;;;;;20.48;2.17;;;11.60;99.90;;;;;;6152340;23;20044;-81
2023/01/05 13:09:26;;;;;;;19.92;3.50;;;11.70;99.90;;;;;;6127442;23;20016;-81
2023/01/05 13:11:58;;;;;;;22.58;2.95;;;11.50;99.90;;;;;;6176698;23;20040;-80
2023/01/05 13:14:29;;;;;;;22.20;2.88;;;11.60;99.90;;;;;;6151813;23;20017;-81
2023/01/05 13:17:01;;;;;;;18.38;1.98;;;11.50;99.90;;;;;;6274344;22;20007;-82
2023/01/05 13:19:43;;;;;;;20.58;2.70;;;11.40;99.90;;;;;;6274897;22;20003;-80
2023/01/05 13:22:32;;;;;;;24.63;3.55;;;11.40;99.90;;;;;;6273881;22;20022;-81
2023/01/05 13:25:18;;;;;;;22.55;2.40;;;11.50;99.90;;;;;;6248742;22;20037;-80
2023/01/05 13:27:44;;;;;;;18.40;1.85;;;11.50;99.90;;;;;;6273821;22;20007;-81
2023/01/05 13:30:22;;;;;;;20.70;2.75;;;11.50;99.90;;;;;;6301289;22;20014;-80
2023/01/05 13:33:05;;;;;;;24.52;3.15;;;11.40;99.90;;;;;;6301575;22;20015;-81
2023/01/05 13:36:03;;;;;;;22.08;2.35;;;11.40;99.90;;;;;;6248883;22;20046;-82
2023/01/05 13:38:56;;;;;;;23.17;3.65;;;11.50;99.90;;;;;;6272969;22;20080;-82